Terminal Aerodrome Forecast
Issued by NWS

Home | Current Version | Previous Version | Text Only | Print | Product List | Glossary On
Versions: 1 2 3 4 5 6 7 8 9 10 11 12 13 14 15
000
FTUS45 KSLC 301739
TAFOGD
TAF
KOGD 301739Z 3018/0118 17010G16KT P6SM FEW090 SCT150
     FM302000 25007KT P6SM SCT090 SCT150
     FM010200 16009KT P6SM SKC
     FM011700 17011G20KT P6SM SCT140=

USA.gov is the U.S. government's official web portal to all federal, state and local government web resources and services.